sensor_id;sensor_type;location;lat;lon;timestamp;P1;durP1;ratioP1;P2;durP2;ratioP2
59976;SDS011;45837;51.076;3.578;2022-11-15T00:01:51;6.13;;;4.32;;
59976;SDS011;45837;51.076;3.578;2022-11-15T00:04:35;5.75;;;4.38;;
59976;SDS011;45837;51.076;3.578;2022-11-15T00:07:20;6.20;;;4.15;;
59976;SDS011;45837;51.076;3.578;2022-11-15T00:10:05;5.90;;;4.38;;
59976;SDS011;45837;51.076;3.578;2022-11-15T00:12:49;5.35;;;4.07;;
59976;SDS011;45837;51.076;3.578;2022-11-15T00:15:34;7.95;;;4.32;;
59976;SDS011;45837;51.076;3.578;2022-11-15T00:18:22;7.30;;;4.88;;
59976;SDS011;45837;51.076;3.578;2022-11-15T00:21:10;6.38;;;4.68;;
59976;SDS011;45837;51.076;3.578;2022-11-15T00:23:55;5.85;;;4.18;;
59976;SDS011;45837;51.076;3.578;2022-11-15T00:26:39;8.13;;;4.63;;
59976;SDS011;45837;51.076;3.578;2022-11-15T00:29:23;6.77;;;4.47;;
59976;SDS011;45837;51.076;3.578;2022-11-15T00:32:08;9.02;;;5.03;;
59976;SDS011;45837;51.076;3.578;2022-11-15T00:34:53;6.22;;;4.30;;
59976;SDS011;45837;51.076;3.578;2022-11-15T00:40:22;7.63;;;4.10;;
59976;SDS011;45837;51.076;3.578;2022-11-15T00:45:51;6.38;;;4.25;;
59976;SDS011;45837;51.076;3.578;2022-11-15T00:48:36;6.93;;;4.38;;
59976;SDS011;45837;51.076;3.578;2022-11-15T00:54:05;5.68;;;3.92;;
59976;SDS011;45837;51.076;3.578;2022-11-15T00:56:49;6.40;;;4.50;;
59976;SDS011;45837;51.076;3.578;2022-11-15T00:59:34;6.97;;;4.55;;
59976;SDS011;45837;51.076;3.578;2022-11-15T01:02:18;7.88;;;4.38;;
59976;SDS011;45837;51.076;3.578;2022-11-15T01:05:02;6.30;;;4.25;;
59976;SDS011;45837;51.076;3.578;2022-11-15T01:10:35;5.50;;;4.07;;
59976;SDS011;45837;51.076;3.578;2022-11-15T01:13:20;7.80;;;4.65;;
59976;SDS011;45837;51.076;3.578;2022-11-15T01:16:09;6.70;;;4.40;;
59976;SDS011;45837;51.076;3.578;2022-11-15T01:18:56;6.25;;;4.32;;
59976;SDS011;45837;51.076;3.578;2022-11-15T01:21:41;6.75;;;4.45;;
59976;SDS011;45837;51.076;3.578;2022-11-15T01:24:25;5.63;;;3.70;;
59976;SDS011;45837;51.076;3.578;2022-11-15T01:27:10;6.65;;;3.80;;
59976;SDS011;45837;51.076;3.578;2022-11-15T01:29:54;7.05;;;4.20;;
59976;SDS011;45837;51.076;3.578;2022-11-15T01:32:39;5.25;;;4.05;;
59976;SDS011;45837;51.076;3.578;2022-11-15T01:35:24;6.03;;;4.25;;
59976;SDS011;45837;51.076;3.578;2022-11-15T01:38:08;6.75;;;4.20;;
59976;SDS011;45837;51.076;3.578;2022-11-15T01:43:38;6.03;;;4.20;;
59976;SDS011;45837;51.076;3.578;2022-11-15T01:49:17;5.72;;;3.80;;
59976;SDS011;45837;51.076;3.578;2022-11-15T01:52:05;8.20;;;4.45;;
59976;SDS011;45837;51.076;3.578;2022-11-15T01:55:06;6.35;;;4.18;;
59976;SDS011;45837;51.076;3.578;2022-11-15T01:57:56;6.50;;;3.88;;
59976;SDS011;45837;51.076;3.578;2022-11-15T02:00:45;5.03;;;3.47;;
59976;SDS011;45837;51.076;3.578;2022-11-15T02:03:36;5.88;;;3.70;;
59976;SDS011;45837;51.076;3.578;2022-11-15T02:09:10;5.75;;;3.95;;
59976;SDS011;45837;51.076;3.578;2022-11-15T02:11:56;5.35;;;3.45;;
59976;SDS011;45837;51.076;3.578;2022-11-15T02:14:41;6.85;;;4.32;;
59976;SDS011;45837;51.076;3.578;2022-11-15T02:17:34;5.57;;;3.70;;
59976;SDS011;45837;51.076;3.578;2022-11-15T02:20:41;7.85;;;3.97;;
59976;SDS011;45837;51.076;3.578;2022-11-15T02:26:58;4.75;;;3.40;;
59976;SDS011;45837;51.076;3.578;2022-11-15T02:42:28;5.38;;;3.95;;
59976;SDS011;45837;51.076;3.578;2022-11-15T02:45:09;5.50;;;3.50;;
59976;SDS011;45837;51.076;3.578;2022-11-15T02:47:57;5.55;;;3.78;;
59976;SDS011;45837;51.076;3.578;2022-11-15T02:50:44;6.13;;;4.25;;
59976;SDS011;45837;51.076;3.578;2022-11-15T02:53:29;5.43;;;3.38;;
59976;SDS011;45837;51.076;3.578;2022-11-15T02:56:14;5.75;;;3.22;;
59976;SDS011;45837;51.076;3.578;2022-11-15T03:08:22;5.03;;;3.20;;
59976;SDS011;45837;51.076;3.578;2022-11-15T03:11:16;4.68;;;3.50;;
59976;SDS011;45837;51.076;3.578;2022-11-15T03:19:53;5.05;;;3.40;;
59976;SDS011;45837;51.076;3.578;2022-11-15T03:22:41;5.72;;;3.72;;
59976;SDS011;45837;51.076;3.578;2022-11-15T03:25:27;5.82;;;3.63;;
59976;SDS011;45837;51.076;3.578;2022-11-15T03:28:18;4.97;;;3.30;;
59976;SDS011;45837;51.076;3.578;2022-11-15T03:31:07;4.30;;;3.20;;
59976;SDS011;45837;51.076;3.578;2022-11-15T03:34:15;4.80;;;3.30;;
59976;SDS011;45837;51.076;3.578;2022-11-15T03:37:17;5.20;;;3.45;;
59976;SDS011;45837;51.076;3.578;2022-11-15T03:40:06;4.55;;;3.13;;
59976;SDS011;45837;51.076;3.578;2022-11-15T03:43:00;4.75;;;3.33;;
59976;SDS011;45837;51.076;3.578;2022-11-15T03:46:06;4.95;;;3.30;;
59976;SDS011;45837;51.076;3.578;2022-11-15T03:49:05;4.85;;;3.13;;
59976;SDS011;45837;51.076;3.578;2022-11-15T03:51:58;5.20;;;3.63;;
59976;SDS011;45837;51.076;3.578;2022-11-15T03:54:54;4.70;;;3.17;;
59976;SDS011;45837;51.076;3.578;2022-11-15T03:57:39;4.20;;;3.30;;
59976;SDS011;45837;51.076;3.578;2022-11-15T04:00:24;4.50;;;3.47;;
59976;SDS011;45837;51.076;3.578;2022-11-15T04:03:08;4.28;;;3.00;;
59976;SDS011;45837;51.076;3.578;2022-11-15T04:05:53;4.70;;;3.60;;
59976;SDS011;45837;51.076;3.578;2022-11-15T04:11:22;5.40;;;3.30;;
59976;SDS011;45837;51.076;3.578;2022-11-15T04:14:06;4.57;;;3.10;;
59976;SDS011;45837;51.076;3.578;2022-11-15T04:16:51;4.63;;;3.03;;
59976;SDS011;45837;51.076;3.578;2022-11-15T04:19:35;4.38;;;3.10;;
59976;SDS011;45837;51.076;3.578;2022-11-15T04:22:39;4.20;;;2.88;;
59976;SDS011;45837;51.076;3.578;2022-11-15T04:25:42;4.90;;;3.00;;
59976;SDS011;45837;51.076;3.578;2022-11-15T04:28:27;5.85;;;3.42;;
59976;SDS011;45837;51.076;3.578;2022-11-15T04:31:12;3.97;;;2.90;;
59976;SDS011;45837;51.076;3.578;2022-11-15T04:33:56;4.28;;;3.25;;
59976;SDS011;45837;51.076;3.578;2022-11-15T04:39:44;5.13;;;3.10;;
59976;SDS011;45837;51.076;3.578;2022-11-15T04:42:28;4.90;;;3.10;;
59976;SDS011;45837;51.076;3.578;2022-11-15T04:45:13;4.85;;;2.88;;
59976;SDS011;45837;51.076;3.578;2022-11-15T04:47:57;4.60;;;3.00;;
59976;SDS011;45837;51.076;3.578;2022-11-15T04:50:48;5.00;;;3.13;;
59976;SDS011;45837;51.076;3.578;2022-11-15T04:56:17;6.00;;;2.97;;
59976;SDS011;45837;51.076;3.578;2022-11-15T05:01:46;5.10;;;3.20;;
59976;SDS011;45837;51.076;3.578;2022-11-15T05:07:15;4.40;;;2.70;;
59976;SDS011;45837;51.076;3.578;2022-11-15T05:12:44;5.03;;;3.28;;
59976;SDS011;45837;51.076;3.578;2022-11-15T05:15:30;13.25;;;3.75;;
59976;SDS011;45837;51.076;3.578;2022-11-15T05:18:14;8.23;;;3.17;;
59976;SDS011;45837;51.076;3.578;2022-11-15T05:21:05;7.88;;;3.15;;
59976;SDS011;45837;51.076;3.578;2022-11-15T05:23:50;7.03;;;3.40;;
59976;SDS011;45837;51.076;3.578;2022-11-15T05:26:35;8.50;;;3.13;;
59976;SDS011;45837;51.076;3.578;2022-11-15T05:29:19;11.65;;;2.95;;
59976;SDS011;45837;51.076;3.578;2022-11-15T05:32:07;12.80;;;3.67;;
59976;SDS011;45837;51.076;3.578;2022-11-15T05:34:54;4.47;;;2.97;;
59976;SDS011;45837;51.076;3.578;2022-11-15T05:40:23;5.88;;;3.25;;
59976;SDS011;45837;51.076;3.578;2022-11-15T05:43:08;13.23;;;2.70;;
59976;SDS011;45837;51.076;3.578;2022-11-15T05:45:54;8.00;;;2.88;;
59976;SDS011;45837;51.076;3.578;2022-11-15T05:48:39;16.23;;;2.60;;
59976;SDS011;45837;51.076;3.578;2022-11-15T05:51:26;14.02;;;2.63;;
59976;SDS011;45837;51.076;3.578;2022-11-15T05:54:12;18.67;;;2.95;;
59976;SDS011;45837;51.076;3.578;2022-11-15T05:56:57;13.77;;;3.35;;
59976;SDS011;45837;51.076;3.578;2022-11-15T05:59:42;20.33;;;3.15;;
59976;SDS011;45837;51.076;3.578;2022-11-15T06:02:27;18.50;;;2.92;;
59976;SDS011;45837;51.076;3.578;2022-11-15T06:05:11;23.58;;;3.63;;
59976;SDS011;45837;51.076;3.578;2022-11-15T06:07:59;11.73;;;2.92;;
59976;SDS011;45837;51.076;3.578;2022-11-15T06:10:43;22.73;;;3.08;;
59976;SDS011;45837;51.076;3.578;2022-11-15T06:13:28;18.13;;;3.08;;
59976;SDS011;45837;51.076;3.578;2022-11-15T06:16:12;12.80;;;2.73;;
59976;SDS011;45837;51.076;3.578;2022-11-15T06:18:56;20.55;;;3.25;;
59976;SDS011;45837;51.076;3.578;2022-11-15T06:21:41;13.48;;;3.28;;
59976;SDS011;45837;51.076;3.578;2022-11-15T06:24:25;10.85;;;2.90;;
59976;SDS011;45837;51.076;3.578;2022-11-15T06:27:10;9.07;;;2.90;;
59976;SDS011;45837;51.076;3.578;2022-11-15T06:29:55;16.42;;;3.00;;
59976;SDS011;45837;51.076;3.578;2022-11-15T06:32:39;12.55;;;2.95;;
59976;SDS011;45837;51.076;3.578;2022-11-15T06:35:23;10.90;;;2.63;;
59976;SDS011;45837;51.076;3.578;2022-11-15T06:38:08;10.65;;;2.55;;
59976;SDS011;45837;51.076;3.578;2022-11-15T06:40:53;8.88;;;2.63;;
59976;SDS011;45837;51.076;3.578;2022-11-15T06:43:38;15.38;;;2.78;;
59976;SDS011;45837;51.076;3.578;2022-11-15T06:46:23;8.48;;;2.28;;
59976;SDS011;45837;51.076;3.578;2022-11-15T06:49:07;7.53;;;2.33;;
59976;SDS011;45837;51.076;3.578;2022-11-15T06:51:52;5.60;;;2.47;;
59976;SDS011;45837;51.076;3.578;2022-11-15T06:54:36;9.90;;;2.30;;
59976;SDS011;45837;51.076;3.578;2022-11-15T06:57:22;11.82;;;2.55;;
59976;SDS011;45837;51.076;3.578;2022-11-15T07:00:07;7.45;;;2.28;;
59976;SDS011;45837;51.076;3.578;2022-11-15T07:02:52;8.73;;;2.30;;
59976;SDS011;45837;51.076;3.578;2022-11-15T07:05:36;6.38;;;1.80;;
59976;SDS011;45837;51.076;3.578;2022-11-15T07:08:21;6.68;;;2.67;;
59976;SDS011;45837;51.076;3.578;2022-11-15T07:11:07;4.05;;;2.03;;
59976;SDS011;45837;51.076;3.578;2022-11-15T07:13:52;7.80;;;2.42;;
59976;SDS011;45837;51.076;3.578;2022-11-15T07:19:21;3.50;;;2.10;;
59976;SDS011;45837;51.076;3.578;2022-11-15T07:22:06;7.45;;;2.40;;
59976;SDS011;45837;51.076;3.578;2022-11-15T07:24:50;4.70;;;2.20;;
59976;SDS011;45837;51.076;3.578;2022-11-15T07:30:18;7.53;;;2.28;;
59976;SDS011;45837;51.076;3.578;2022-11-15T07:33:03;3.47;;;2.00;;
59976;SDS011;45837;51.076;3.578;2022-11-15T07:35:48;6.28;;;2.10;;
59976;SDS011;45837;51.076;3.578;2022-11-15T07:38:33;6.13;;;2.13;;
59976;SDS011;45837;51.076;3.578;2022-11-15T07:41:18;5.32;;;1.80;;
59976;SDS011;45837;51.076;3.578;2022-11-15T07:44:03;7.57;;;1.90;;
59976;SDS011;45837;51.076;3.578;2022-11-15T07:46:47;4.38;;;1.80;;
59976;SDS011;45837;51.076;3.578;2022-11-15T07:49:32;4.30;;;1.80;;
59976;SDS011;45837;51.076;3.578;2022-11-15T07:52:17;7.18;;;2.05;;
59976;SDS011;45837;51.076;3.578;2022-11-15T07:55:01;4.43;;;2.08;;
59976;SDS011;45837;51.076;3.578;2022-11-15T07:57:46;4.28;;;2.22;;
59976;SDS011;45837;51.076;3.578;2022-11-15T08:00:31;4.88;;;2.30;;
59976;SDS011;45837;51.076;3.578;2022-11-15T08:03:16;5.05;;;2.08;;
59976;SDS011;45837;51.076;3.578;2022-11-15T08:06:01;5.32;;;1.67;;
59976;SDS011;45837;51.076;3.578;2022-11-15T08:08:46;5.07;;;1.75;;
59976;SDS011;45837;51.076;3.578;2022-11-15T08:11:31;5.70;;;2.08;;
59976;SDS011;45837;51.076;3.578;2022-11-15T08:14:15;3.85;;;1.83;;
59976;SDS011;45837;51.076;3.578;2022-11-15T08:17:00;4.75;;;2.10;;
59976;SDS011;45837;51.076;3.578;2022-11-15T08:19:45;4.10;;;1.95;;
59976;SDS011;45837;51.076;3.578;2022-11-15T08:22:29;4.45;;;1.85;;
59976;SDS011;45837;51.076;3.578;2022-11-15T08:25:14;7.63;;;2.00;;
59976;SDS011;45837;51.076;3.578;2022-11-15T08:28:00;4.78;;;1.95;;
59976;SDS011;45837;51.076;3.578;2022-11-15T08:30:46;6.15;;;2.00;;
59976;SDS011;45837;51.076;3.578;2022-11-15T08:33:32;3.90;;;1.45;;
59976;SDS011;45837;51.076;3.578;2022-11-15T08:36:17;4.05;;;1.70;;
59976;SDS011;45837;51.076;3.578;2022-11-15T08:39:01;5.28;;;1.88;;
59976;SDS011;45837;51.076;3.578;2022-11-15T08:44:30;6.93;;;1.92;;
59976;SDS011;45837;51.076;3.578;2022-11-15T08:47:14;4.30;;;1.83;;
59976;SDS011;45837;51.076;3.578;2022-11-15T08:49:59;4.78;;;1.60;;
59976;SDS011;45837;51.076;3.578;2022-11-15T08:55:28;5.85;;;1.88;;
59976;SDS011;45837;51.076;3.578;2022-11-15T08:58:12;4.47;;;2.08;;
59976;SDS011;45837;51.076;3.578;2022-11-15T09:00:57;5.97;;;1.70;;
59976;SDS011;45837;51.076;3.578;2022-11-15T09:03:42;4.40;;;1.70;;
59976;SDS011;45837;51.076;3.578;2022-11-15T09:06:27;7.15;;;1.77;;
59976;SDS011;45837;51.076;3.578;2022-11-15T09:09:11;2.22;;;1.33;;
59976;SDS011;45837;51.076;3.578;2022-11-15T09:11:56;4.38;;;1.77;;
59976;SDS011;45837;51.076;3.578;2022-11-15T09:14:40;2.42;;;1.30;;
59976;SDS011;45837;51.076;3.578;2022-11-15T09:17:24;5.80;;;2.00;;
59976;SDS011;45837;51.076;3.578;2022-11-15T09:20:09;5.50;;;1.60;;
59976;SDS011;45837;51.076;3.578;2022-11-15T09:25:38;5.07;;;1.70;;
59976;SDS011;45837;51.076;3.578;2022-11-15T09:31:07;3.13;;;1.60;;
59976;SDS011;45837;51.076;3.578;2022-11-15T09:33:52;2.78;;;1.48;;
59976;SDS011;45837;51.076;3.578;2022-11-15T09:36:37;3.78;;;1.77;;
59976;SDS011;45837;51.076;3.578;2022-11-15T09:39:21;4.72;;;1.55;;
59976;SDS011;45837;51.076;3.578;2022-11-15T09:45:12;3.92;;;1.70;;
59976;SDS011;45837;51.076;3.578;2022-11-15T09:51:25;4.80;;;1.65;;
59976;SDS011;45837;51.076;3.578;2022-11-15T09:56:20;3.25;;;1.25;;
59976;SDS011;45837;51.076;3.578;2022-11-15T10:04:16;4.65;;;1.50;;
59976;SDS011;45837;51.076;3.578;2022-11-15T10:06:44;4.72;;;1.77;;
59976;SDS011;45837;51.076;3.578;2022-11-15T10:09:19;3.17;;;1.73;;
59976;SDS011;45837;51.076;3.578;2022-11-15T10:11:51;2.58;;;1.33;;
59976;SDS011;45837;51.076;3.578;2022-11-15T10:14:21;3.08;;;1.30;;
59976;SDS011;45837;51.076;3.578;2022-11-15T10:19:46;4.00;;;1.10;;
59976;SDS011;45837;51.076;3.578;2022-11-15T10:24:53;3.50;;;1.30;;
59976;SDS011;45837;51.076;3.578;2022-11-15T10:27:33;3.30;;;1.90;;
59976;SDS011;45837;51.076;3.578;2022-11-15T10:29:59;3.58;;;1.50;;
59976;SDS011;45837;51.076;3.578;2022-11-15T10:32:26;4.03;;;1.67;;
59976;SDS011;45837;51.076;3.578;2022-11-15T10:34:52;2.78;;;1.30;;
59976;SDS011;45837;51.076;3.578;2022-11-15T10:37:31;4.75;;;1.95;;
59976;SDS011;45837;51.076;3.578;2022-11-15T10:40:13;4.78;;;1.30;;
59976;SDS011;45837;51.076;3.578;2022-11-15T10:42:48;3.33;;;1.50;;
59976;SDS011;45837;51.076;3.578;2022-11-15T10:45:30;3.30;;;1.55;;
59976;SDS011;45837;51.076;3.578;2022-11-15T10:48:42;6.57;;;2.00;;
59976;SDS011;45837;51.076;3.578;2022-11-15T10:50:44;2.28;;;1.45;;
59976;SDS011;45837;51.076;3.578;2022-11-15T10:53:22;2.55;;;1.33;;
59976;SDS011;45837;51.076;3.578;2022-11-15T10:55:53;4.13;;;1.80;;
59976;SDS011;45837;51.076;3.578;2022-11-15T10:58:30;3.55;;;1.50;;
59976;SDS011;45837;51.076;3.578;2022-11-15T11:01:11;3.85;;;1.40;;
59976;SDS011;45837;51.076;3.578;2022-11-15T11:03:38;4.70;;;1.50;;
59976;SDS011;45837;51.076;3.578;2022-11-15T11:06:07;3.30;;;1.50;;
59976;SDS011;45837;51.076;3.578;2022-11-15T11:08:33;4.28;;;1.58;;
59976;SDS011;45837;51.076;3.578;2022-11-15T11:10:59;4.88;;;1.55;;
59976;SDS011;45837;51.076;3.578;2022-11-15T11:13:27;4.43;;;1.50;;
59976;SDS011;45837;51.076;3.578;2022-11-15T11:18:38;4.25;;;1.38;;
59976;SDS011;45837;51.076;3.578;2022-11-15T11:21:17;3.28;;;1.50;;
59976;SDS011;45837;51.076;3.578;2022-11-15T11:37:24;2.20;;;1.35;;
59976;SDS011;45837;51.076;3.578;2022-11-15T11:42:54;4.78;;;1.40;;
59976;SDS011;45837;51.076;3.578;2022-11-15T11:48:02;2.50;;;1.10;;
59976;SDS011;45837;51.076;3.578;2022-11-15T11:50:45;3.08;;;1.45;;
59976;SDS011;45837;51.076;3.578;2022-11-15T11:53:12;3.20;;;1.40;;
59976;SDS011;45837;51.076;3.578;2022-11-15T11:56:02;4.20;;;1.52;;
59976;SDS011;45837;51.076;3.578;2022-11-15T11:58:41;3.87;;;1.70;;
59976;SDS011;45837;51.076;3.578;2022-11-15T12:04:01;3.63;;;1.45;;
59976;SDS011;45837;51.076;3.578;2022-11-15T12:06:54;2.30;;;1.10;;
59976;SDS011;45837;51.076;3.578;2022-11-15T12:09:32;2.72;;;1.13;;
59976;SDS011;45837;51.076;3.578;2022-11-15T12:12:12;2.00;;;1.05;;
59976;SDS011;45837;51.076;3.578;2022-11-15T12:17:29;1.98;;;1.10;;
59976;SDS011;45837;51.076;3.578;2022-11-15T12:20:02;2.78;;;1.05;;
59976;SDS011;45837;51.076;3.578;2022-11-15T12:22:57;3.92;;;1.33;;
59976;SDS011;45837;51.076;3.578;2022-11-15T12:25:30;3.10;;;1.67;;
59976;SDS011;45837;51.076;3.578;2022-11-15T12:30:52;3.92;;;1.52;;
59976;SDS011;45837;51.076;3.578;2022-11-15T12:33:29;2.33;;;1.10;;
59976;SDS011;45837;51.076;3.578;2022-11-15T12:36:05;3.08;;;1.30;;
59976;SDS011;45837;51.076;3.578;2022-11-15T12:41:32;2.50;;;1.27;;
59976;SDS011;45837;51.076;3.578;2022-11-15T12:43:59;2.55;;;1.25;;
59976;SDS011;45837;51.076;3.578;2022-11-15T12:52:03;1.70;;;1.10;;
59976;SDS011;45837;51.076;3.578;2022-11-15T12:59:49;2.60;;;1.00;;
59976;SDS011;45837;51.076;3.578;2022-11-15T13:17:38;2.47;;;1.10;;
59976;SDS011;45837;51.076;3.578;2022-11-15T13:30:51;1.92;;;1.17;;
59976;SDS011;45837;51.076;3.578;2022-11-15T13:33:25;2.45;;;1.27;;
59976;SDS011;45837;51.076;3.578;2022-11-15T13:36:01;4.47;;;1.30;;
59976;SDS011;45837;51.076;3.578;2022-11-15T13:38:28;2.55;;;0.95;;
59976;SDS011;45837;51.076;3.578;2022-11-15T13:40:55;2.22;;;1.13;;
59976;SDS011;45837;51.076;3.578;2022-11-15T13:48:33;1.83;;;1.15;;
59976;SDS011;45837;51.076;3.578;2022-11-15T13:51:00;3.15;;;1.10;;
59976;SDS011;45837;51.076;3.578;2022-11-15T13:53:28;2.10;;;1.02;;
59976;SDS011;45837;51.076;3.578;2022-11-15T13:55:57;2.70;;;1.00;;
59976;SDS011;45837;51.076;3.578;2022-11-15T13:58:23;2.00;;;1.13;;
59976;SDS011;45837;51.076;3.578;2022-11-15T14:00:50;2.45;;;1.08;;
59976;SDS011;45837;51.076;3.578;2022-11-15T14:03:28;1.88;;;1.02;;
59976;SDS011;45837;51.076;3.578;2022-11-15T14:06:04;3.05;;;1.30;;
59976;SDS011;45837;51.076;3.578;2022-11-15T14:08:38;2.75;;;1.13;;
59976;SDS011;45837;51.076;3.578;2022-11-15T14:11:06;2.78;;;1.23;;
59976;SDS011;45837;51.076;3.578;2022-11-15T14:13:59;3.85;;;1.17;;
59976;SDS011;45837;51.076;3.578;2022-11-15T14:16:34;1.75;;;1.05;;
59976;SDS011;45837;51.076;3.578;2022-11-15T14:19:02;2.05;;;1.20;;
59976;SDS011;45837;51.076;3.578;2022-11-15T14:21:29;1.98;;;1.20;;
59976;SDS011;45837;51.076;3.578;2022-11-15T14:24:14;2.28;;;1.35;;
59976;SDS011;45837;51.076;3.578;2022-11-15T14:26:41;2.35;;;1.20;;
59976;SDS011;45837;51.076;3.578;2022-11-15T14:29:25;2.35;;;1.00;;
59976;SDS011;45837;51.076;3.578;2022-11-15T14:31:53;2.22;;;1.10;;
59976;SDS011;45837;51.076;3.578;2022-11-15T14:34:36;1.88;;;1.00;;
59976;SDS011;45837;51.076;3.578;2022-11-15T14:37:02;2.80;;;1.15;;
59976;SDS011;45837;51.076;3.578;2022-11-15T14:39:28;1.90;;;1.00;;
59976;SDS011;45837;51.076;3.578;2022-11-15T14:41:55;2.58;;;1.42;;
59976;SDS011;45837;51.076;3.578;2022-11-15T14:44:20;2.10;;;1.10;;
59976;SDS011;45837;51.076;3.578;2022-11-15T14:46:47;2.17;;;1.05;;
59976;SDS011;45837;51.076;3.578;2022-11-15T14:49:13;3.70;;;1.20;;
59976;SDS011;45837;51.076;3.578;2022-11-15T14:51:40;2.78;;;1.10;;
59976;SDS011;45837;51.076;3.578;2022-11-15T14:54:09;3.03;;;1.20;;
59976;SDS011;45837;51.076;3.578;2022-11-15T14:56:35;2.40;;;1.00;;
59976;SDS011;45837;51.076;3.578;2022-11-15T14:59:01;2.72;;;1.20;;
59976;SDS011;45837;51.076;3.578;2022-11-15T15:01:27;2.75;;;1.10;;
59976;SDS011;45837;51.076;3.578;2022-11-15T15:03:53;2.40;;;1.35;;
59976;SDS011;45837;51.076;3.578;2022-11-15T15:06:22;1.58;;;1.00;;
59976;SDS011;45837;51.076;3.578;2022-11-15T15:08:48;2.10;;;1.20;;
59976;SDS011;45837;51.076;3.578;2022-11-15T15:11:20;2.22;;;1.30;;
59976;SDS011;45837;51.076;3.578;2022-11-15T15:13:48;2.03;;;1.00;;
59976;SDS011;45837;51.076;3.578;2022-11-15T15:16:14;2.25;;;1.20;;
59976;SDS011;45837;51.076;3.578;2022-11-15T15:18:40;2.83;;;0.90;;
59976;SDS011;45837;51.076;3.578;2022-11-15T15:21:15;2.28;;;1.05;;
59976;SDS011;45837;51.076;3.578;2022-11-15T15:23:47;1.70;;;1.00;;
59976;SDS011;45837;51.076;3.578;2022-11-15T15:26:13;2.47;;;1.20;;
59976;SDS011;45837;51.076;3.578;2022-11-15T15:28:39;2.50;;;1.08;;
59976;SDS011;45837;51.076;3.578;2022-11-15T15:31:05;2.00;;;1.00;;
59976;SDS011;45837;51.076;3.578;2022-11-15T15:33:31;2.55;;;1.10;;
59976;SDS011;45837;51.076;3.578;2022-11-15T15:35:57;2.45;;;1.20;;
59976;SDS011;45837;51.076;3.578;2022-11-15T15:38:24;2.03;;;1.00;;
59976;SDS011;45837;51.076;3.578;2022-11-15T15:40:50;1.95;;;1.10;;
59976;SDS011;45837;51.076;3.578;2022-11-15T15:43:15;1.95;;;1.10;;
59976;SDS011;45837;51.076;3.578;2022-11-15T15:45:41;1.60;;;1.08;;
59976;SDS011;45837;51.076;3.578;2022-11-15T15:48:14;2.17;;;1.10;;
59976;SDS011;45837;51.076;3.578;2022-11-15T15:50:41;3.50;;;0.95;;
59976;SDS011;45837;51.076;3.578;2022-11-15T15:53:08;2.55;;;1.20;;
59976;SDS011;45837;51.076;3.578;2022-11-15T15:55:36;4.53;;;1.20;;
59976;SDS011;45837;51.076;3.578;2022-11-15T15:58:03;1.85;;;1.20;;
59976;SDS011;45837;51.076;3.578;2022-11-15T16:00:30;2.17;;;1.17;;
59976;SDS011;45837;51.076;3.578;2022-11-15T16:02:58;7.53;;;1.10;;
59976;SDS011;45837;51.076;3.578;2022-11-15T16:05:24;6.05;;;1.02;;
59976;SDS011;45837;51.076;3.578;2022-11-15T16:07:50;5.70;;;1.33;;
59976;SDS011;45837;51.076;3.578;2022-11-15T16:10:19;5.57;;;1.27;;
59976;SDS011;45837;51.076;3.578;2022-11-15T16:12:50;7.88;;;1.23;;
59976;SDS011;45837;51.076;3.578;2022-11-15T16:15:17;9.73;;;1.67;;
59976;SDS011;45837;51.076;3.578;2022-11-15T16:17:45;11.18;;;1.55;;
59976;SDS011;45837;51.076;3.578;2022-11-15T16:20:23;3.35;;;1.27;;
59976;SDS011;45837;51.076;3.578;2022-11-15T16:25:14;4.45;;;1.15;;
59976;SDS011;45837;51.076;3.578;2022-11-15T16:27:40;9.88;;;1.50;;
59976;SDS011;45837;51.076;3.578;2022-11-15T16:30:16;6.18;;;1.38;;
59976;SDS011;45837;51.076;3.578;2022-11-15T16:35:13;4.35;;;1.40;;
59976;SDS011;45837;51.076;3.578;2022-11-15T16:37:40;5.70;;;1.05;;
59976;SDS011;45837;51.076;3.578;2022-11-15T16:42:38;7.05;;;1.45;;
59976;SDS011;45837;51.076;3.578;2022-11-15T16:45:04;5.22;;;1.17;;
59976;SDS011;45837;51.076;3.578;2022-11-15T16:47:30;7.72;;;1.17;;
59976;SDS011;45837;51.076;3.578;2022-11-15T16:49:56;12.02;;;1.58;;
59976;SDS011;45837;51.076;3.578;2022-11-15T16:52:22;9.18;;;1.40;;
59976;SDS011;45837;51.076;3.578;2022-11-15T16:54:47;11.10;;;2.22;;
59976;SDS011;45837;51.076;3.578;2022-11-15T16:57:13;9.05;;;1.45;;
59976;SDS011;45837;51.076;3.578;2022-11-15T16:59:40;9.40;;;1.90;;
59976;SDS011;45837;51.076;3.578;2022-11-15T17:02:12;13.13;;;1.65;;
59976;SDS011;45837;51.076;3.578;2022-11-15T17:04:39;12.07;;;1.83;;
59976;SDS011;45837;51.076;3.578;2022-11-15T17:07:04;12.15;;;1.75;;
59976;SDS011;45837;51.076;3.578;2022-11-15T17:09:30;7.40;;;1.52;;
59976;SDS011;45837;51.076;3.578;2022-11-15T17:11:57;23.17;;;1.80;;
59976;SDS011;45837;51.076;3.578;2022-11-15T17:14:22;27.00;;;1.90;;
59976;SDS011;45837;51.076;3.578;2022-11-15T17:16:48;7.00;;;1.35;;
59976;SDS011;45837;51.076;3.578;2022-11-15T17:19:15;8.43;;;1.70;;
59976;SDS011;45837;51.076;3.578;2022-11-15T17:21:43;17.98;;;1.85;;
59976;SDS011;45837;51.076;3.578;2022-11-15T17:24:09;8.18;;;1.40;;
59976;SDS011;45837;51.076;3.578;2022-11-15T17:26:36;12.27;;;1.65;;
59976;SDS011;45837;51.076;3.578;2022-11-15T17:29:03;6.90;;;1.10;;
59976;SDS011;45837;51.076;3.578;2022-11-15T17:31:32;6.85;;;1.20;;
59976;SDS011;45837;51.076;3.578;2022-11-15T17:34:02;9.75;;;1.70;;
59976;SDS011;45837;51.076;3.578;2022-11-15T17:36:28;4.97;;;1.48;;
59976;SDS011;45837;51.076;3.578;2022-11-15T17:38:55;7.93;;;1.40;;
59976;SDS011;45837;51.076;3.578;2022-11-15T17:41:21;6.65;;;1.80;;
59976;SDS011;45837;51.076;3.578;2022-11-15T17:43:47;13.55;;;1.95;;
59976;SDS011;45837;51.076;3.578;2022-11-15T17:46:14;7.80;;;1.95;;
59976;SDS011;45837;51.076;3.578;2022-11-15T17:48:42;10.00;;;2.75;;
59976;SDS011;45837;51.076;3.578;2022-11-15T17:51:12;5.32;;;1.52;;
59976;SDS011;45837;51.076;3.578;2022-11-15T17:53:40;7.07;;;1.67;;
59976;SDS011;45837;51.076;3.578;2022-11-15T17:56:09;9.18;;;1.42;;
59976;SDS011;45837;51.076;3.578;2022-11-15T17:58:36;4.60;;;1.73;;
59976;SDS011;45837;51.076;3.578;2022-11-15T18:03:34;10.70;;;1.90;;
59976;SDS011;45837;51.076;3.578;2022-11-15T18:06:01;9.00;;;1.65;;
59976;SDS011;45837;51.076;3.578;2022-11-15T18:08:29;11.25;;;2.20;;
59976;SDS011;45837;51.076;3.578;2022-11-15T18:11:09;9.10;;;1.70;;
59976;SDS011;45837;51.076;3.578;2022-11-15T18:16:08;19.70;;;1.75;;
59976;SDS011;45837;51.076;3.578;2022-11-15T18:18:39;10.75;;;1.95;;
59976;SDS011;45837;51.076;3.578;2022-11-15T18:21:06;9.98;;;1.70;;
59976;SDS011;45837;51.076;3.578;2022-11-15T18:23:34;11.95;;;1.80;;
59976;SDS011;45837;51.076;3.578;2022-11-15T18:26:01;15.90;;;2.70;;
59976;SDS011;45837;51.076;3.578;2022-11-15T18:28:36;15.98;;;2.00;;
59976;SDS011;45837;51.076;3.578;2022-11-15T18:31:10;14.25;;;1.88;;
59976;SDS011;45837;51.076;3.578;2022-11-15T18:33:40;15.63;;;1.88;;
59976;SDS011;45837;51.076;3.578;2022-11-15T18:36:08;18.83;;;2.10;;
59976;SDS011;45837;51.076;3.578;2022-11-15T18:38:42;17.35;;;2.00;;
59976;SDS011;45837;51.076;3.578;2022-11-15T18:41:09;15.15;;;2.88;;
59976;SDS011;45837;51.076;3.578;2022-11-15T18:43:37;15.00;;;1.90;;
59976;SDS011;45837;51.076;3.578;2022-11-15T18:46:05;15.48;;;1.92;;
59976;SDS011;45837;51.076;3.578;2022-11-15T18:48:36;21.05;;;2.20;;
59976;SDS011;45837;51.076;3.578;2022-11-15T18:51:07;17.70;;;2.13;;
59976;SDS011;45837;51.076;3.578;2022-11-15T18:53:35;6.80;;;1.58;;
59976;SDS011;45837;51.076;3.578;2022-11-15T18:56:03;17.95;;;1.80;;
59976;SDS011;45837;51.076;3.578;2022-11-15T18:58:31;8.40;;;1.85;;
59976;SDS011;45837;51.076;3.578;2022-11-15T19:01:17;12.52;;;2.20;;
59976;SDS011;45837;51.076;3.578;2022-11-15T19:03:46;10.75;;;1.77;;
59976;SDS011;45837;51.076;3.578;2022-11-15T19:08:40;8.85;;;1.35;;